BEL1MA ELLX-LFPG
Flight info
| Callsign | BEL1MA |
|---|---|
| Flight time | 0h 44m |
| Altitude | 19000 |
| Route | RAPOR Z157 VEDUS |
| Aircraft | A320/M-SDE3FGHIRWY/LB1 |
Departure
| Time | 2026-05-08 12:24 |
|---|---|
| Airport | Luxembourg-Findel International Airport (ELLX) |
Arrival
| Time | 2026-05-08 13:08 |
|---|---|
| Airport | Charles de Gaulle International Airport (LFPG) |
| Time | Latitude | Longitude | Altitude | Speed | Heading |
|---|---|---|---|---|---|
| 2026-05-08 11:57 | 49.63343 | 6.21694 | 1196 ft | 0 kts | 328° |
| 2026-05-08 12:14 | 49.63341 | 6.21695 | 1195 ft | 2 kts | 328° |
| 2026-05-08 12:14 | 49.63329 | 6.21712 | 1195 ft | 2 kts | 271° |
| 2026-05-08 12:14 | 49.63330 | 6.21726 | 1195 ft | 0 kts | 237° |
| 2026-05-08 12:18 | 49.63322 | 6.21709 | 1195 ft | 7 kts | 237° |
| 2026-05-08 12:18 | 49.63238 | 6.21687 | 1196 ft | 19 kts | 153° |
| 2026-05-08 12:18 | 49.63116 | 6.21763 | 1197 ft | 12 kts | 205° |
| 2026-05-08 12:18 | 49.63073 | 6.21633 | 1197 ft | 18 kts | 245° |
| 2026-05-08 12:19 | 49.63003 | 6.21412 | 1197 ft | 27 kts | 245° |
| 2026-05-08 12:19 | 49.62913 | 6.21108 | 1197 ft | 35 kts | 244° |
| 2026-05-08 12:19 | 49.62793 | 6.20748 | 1196 ft | 39 kts | 232° |
| 2026-05-08 12:19 | 49.62597 | 6.20466 | 1197 ft | 38 kts | 227° |
| 2026-05-08 12:20 | 49.62442 | 6.20132 | 1198 ft | 39 kts | 239° |
| 2026-05-08 12:20 | 49.62309 | 6.19771 | 1198 ft | 39 kts | 241° |
| 2026-05-08 12:20 | 49.62172 | 6.19406 | 1197 ft | 40 kts | 239° |
| 2026-05-08 12:20 | 49.62031 | 6.19038 | 1196 ft | 40 kts | 240° |
| 2026-05-08 12:21 | 49.61912 | 6.18771 | 1197 ft | 23 kts | 222° |
| 2026-05-08 12:21 | 49.61885 | 6.18739 | 1197 ft | 0 kts | 215° |
| 2026-05-08 12:21 | 49.61856 | 6.18718 | 1198 ft | 11 kts | 195° |
| 2026-05-08 12:21 | 49.61784 | 6.18796 | 1203 ft | 16 kts | 100° |
| 2026-05-08 12:22 | 49.61799 | 6.18882 | 1203 ft | 0 kts | 59° |
| 2026-05-08 12:23 | 49.61799 | 6.18884 | 1203 ft | 4 kts | 59° |
| 2026-05-08 12:23 | 49.61941 | 6.19267 | 1203 ft | 78 kts | 60° |
| 2026-05-08 12:23 | 49.62309 | 6.20271 | 1212 ft | 135 kts | 61° |
| 2026-05-08 12:23 | 49.62835 | 6.21724 | 1427 ft | 163 kts | 62° |
| 2026-05-08 12:24 | 49.63398 | 6.23267 | 2094 ft | 169 kts | 62° |
| 2026-05-08 12:24 | 49.63990 | 6.24889 | 2809 ft | 176 kts | 62° |
| 2026-05-08 12:24 | 49.64619 | 6.26558 | 3468 ft | 187 kts | 60° |
| 2026-05-08 12:24 | 49.65332 | 6.28392 | 3777 ft | 213 kts | 60° |
| 2026-05-08 12:25 | 49.66126 | 6.30483 | 4189 ft | 238 kts | 61° |
| 2026-05-08 12:25 | 49.66987 | 6.32807 | 4739 ft | 258 kts | 61° |
| 2026-05-08 12:25 | 49.67889 | 6.35248 | 5602 ft | 265 kts | 61° |
| 2026-05-08 12:25 | 49.69018 | 6.37480 | 6475 ft | 273 kts | 37° |
| 2026-05-08 12:26 | 49.70796 | 6.38534 | 7259 ft | 281 kts | 2° |
| 2026-05-08 12:26 | 49.72697 | 6.37907 | 8093 ft | 284 kts | 328° |
| 2026-05-08 12:26 | 49.74076 | 6.35785 | 8953 ft | 283 kts | 295° |
| 2026-05-08 12:26 | 49.74499 | 6.32859 | 9858 ft | 281 kts | 265° |
| 2026-05-08 12:27 | 49.74220 | 6.29865 | 10705 ft | 283 kts | 257° |
| 2026-05-08 12:27 | 49.73838 | 6.26865 | 11538 ft | 286 kts | 257° |
| 2026-05-08 12:27 | 49.73447 | 6.23834 | 12356 ft | 289 kts | 256° |
| 2026-05-08 12:27 | 49.72836 | 6.20852 | 13065 ft | 298 kts | 249° |
| 2026-05-08 12:28 | 49.72156 | 6.17691 | 13306 ft | 321 kts | 252° |
| 2026-05-08 12:28 | 49.71499 | 6.14264 | 13495 ft | 344 kts | 253° |
| 2026-05-08 12:28 | 49.70838 | 6.10633 | 13946 ft | 356 kts | 253° |
| 2026-05-08 12:28 | 49.70167 | 6.06915 | 14577 ft | 361 kts | 253° |
| 2026-05-08 12:29 | 49.69481 | 6.03167 | 15236 ft | 364 kts | 253° |
| 2026-05-08 12:29 | 49.68773 | 5.99385 | 15907 ft | 368 kts | 252° |
| 2026-05-08 12:29 | 49.68045 | 5.95569 | 16593 ft | 371 kts | 252° |
| 2026-05-08 12:29 | 49.67306 | 5.91736 | 17237 ft | 375 kts | 252° |
| 2026-05-08 12:30 | 49.66558 | 5.87868 | 17903 ft | 378 kts | 252° |
| 2026-05-08 12:30 | 49.65803 | 5.83964 | 18559 ft | 381 kts | 252° |
| 2026-05-08 12:30 | 49.65044 | 5.80039 | 18954 ft | 383 kts | 252° |
| 2026-05-08 12:30 | 49.64280 | 5.76094 | 19069 ft | 387 kts | 252° |
| 2026-05-08 12:31 | 49.63503 | 5.72080 | 19094 ft | 404 kts | 252° |
| 2026-05-08 12:31 | 49.62690 | 5.67896 | 19091 ft | 410 kts | 252° |
| 2026-05-08 12:31 | 49.61934 | 5.63650 | 19088 ft | 412 kts | 258° |
| 2026-05-08 12:31 | 49.61706 | 5.59239 | 19095 ft | 414 kts | 266° |
| 2026-05-08 12:32 | 49.61593 | 5.54807 | 19093 ft | 414 kts | 266° |
| 2026-05-08 12:32 | 49.61486 | 5.50372 | 19086 ft | 414 kts | 266° |
| 2026-05-08 12:32 | 49.61378 | 5.45942 | 19092 ft | 413 kts | 266° |
| 2026-05-08 12:32 | 49.61268 | 5.41517 | 19092 ft | 413 kts | 266° |
| 2026-05-08 12:33 | 49.61155 | 5.37093 | 19095 ft | 413 kts | 266° |
| 2026-05-08 12:33 | 49.61039 | 5.32677 | 19089 ft | 412 kts | 266° |
| 2026-05-08 12:33 | 49.60921 | 5.28264 | 19087 ft | 412 kts | 266° |
| 2026-05-08 12:33 | 49.60803 | 5.23851 | 19087 ft | 412 kts | 266° |
| 2026-05-08 12:34 | 49.60724 | 5.20928 | 19084 ft | 412 kts | 266° |
| 2026-05-08 12:34 | 49.60601 | 5.16517 | 19085 ft | 412 kts | 266° |
| 2026-05-08 12:34 | 49.60479 | 5.12109 | 19083 ft | 412 kts | 266° |
| 2026-05-08 12:34 | 49.60354 | 5.07691 | 19085 ft | 412 kts | 266° |
| 2026-05-08 12:35 | 49.60226 | 5.03281 | 19078 ft | 412 kts | 266° |
| 2026-05-08 12:35 | 49.60096 | 4.98865 | 19082 ft | 412 kts | 266° |
| 2026-05-08 12:35 | 49.59964 | 4.94452 | 19082 ft | 412 kts | 266° |
| 2026-05-08 12:35 | 49.59833 | 4.90027 | 19092 ft | 413 kts | 266° |
| 2026-05-08 12:36 | 49.59701 | 4.85615 | 19097 ft | 413 kts | 266° |
| 2026-05-08 12:36 | 49.59567 | 4.81197 | 19100 ft | 413 kts | 266° |
| 2026-05-08 12:36 | 49.59441 | 4.76782 | 19096 ft | 413 kts | 267° |
| 2026-05-08 12:36 | 49.59393 | 4.72359 | 19098 ft | 413 kts | 268° |
| 2026-05-08 12:37 | 49.59416 | 4.67929 | 19092 ft | 413 kts | 269° |
| 2026-05-08 12:37 | 49.59469 | 4.63504 | 19090 ft | 413 kts | 270° |
| 2026-05-08 12:37 | 49.59529 | 4.59071 | 19092 ft | 413 kts | 270° |
| 2026-05-08 12:37 | 49.59580 | 4.54644 | 19094 ft | 413 kts | 269° |
| 2026-05-08 12:38 | 49.59615 | 4.50212 | 19099 ft | 413 kts | 269° |
| 2026-05-08 12:38 | 49.59634 | 4.45778 | 19102 ft | 414 kts | 269° |
| 2026-05-08 12:38 | 49.59642 | 4.41340 | 19100 ft | 413 kts | 269° |
| 2026-05-08 12:38 | 49.59647 | 4.36907 | 19099 ft | 413 kts | 269° |
| 2026-05-08 12:39 | 49.59650 | 4.32476 | 19096 ft | 413 kts | 269° |
| 2026-05-08 12:39 | 49.59655 | 4.28048 | 19098 ft | 413 kts | 269° |
| 2026-05-08 12:39 | 49.59660 | 4.23617 | 19096 ft | 413 kts | 269° |
| 2026-05-08 12:39 | 49.59663 | 4.19241 | 19097 ft | 414 kts | 269° |
| 2026-05-08 12:40 | 49.59665 | 4.14809 | 19100 ft | 414 kts | 269° |
| 2026-05-08 12:40 | 49.59486 | 4.10395 | 19097 ft | 412 kts | 260° |
| 2026-05-08 12:40 | 49.58816 | 4.06102 | 19097 ft | 411 kts | 250° |
| 2026-05-08 12:40 | 49.57671 | 4.02075 | 19099 ft | 410 kts | 240° |
| 2026-05-08 12:41 | 49.56184 | 3.98453 | 19015 ft | 391 kts | 236° |
| 2026-05-08 12:41 | 49.54718 | 3.95017 | 18390 ft | 378 kts | 236° |
| 2026-05-08 12:41 | 49.53284 | 3.91613 | 17692 ft | 378 kts | 237° |
| 2026-05-08 12:41 | 49.51866 | 3.88233 | 17138 ft | 374 kts | 237° |
| 2026-05-08 12:42 | 49.50455 | 3.84885 | 16576 ft | 371 kts | 237° |
| 2026-05-08 12:42 | 49.49054 | 3.81567 | 16015 ft | 369 kts | 237° |
| 2026-05-08 12:42 | 49.47781 | 3.78135 | 15401 ft | 368 kts | 245° |
| 2026-05-08 12:42 | 49.46915 | 3.74452 | 14818 ft | 368 kts | 254° |
| 2026-05-08 12:43 | 49.46286 | 3.70665 | 14285 ft | 365 kts | 255° |
| 2026-05-08 12:43 | 49.45654 | 3.66908 | 13789 ft | 361 kts | 254° |
| 2026-05-08 12:43 | 49.45022 | 3.63170 | 13179 ft | 359 kts | 254° |
| 2026-05-08 12:43 | 49.44397 | 3.59495 | 12852 ft | 353 kts | 254° |
| 2026-05-08 12:44 | 49.43773 | 3.55849 | 12667 ft | 352 kts | 254° |
| 2026-05-08 12:44 | 49.43151 | 3.52222 | 12462 ft | 351 kts | 254° |
| 2026-05-08 12:44 | 49.42531 | 3.48603 | 12259 ft | 350 kts | 254° |
| 2026-05-08 12:44 | 49.41921 | 3.45040 | 12070 ft | 349 kts | 254° |
| 2026-05-08 12:45 | 49.41301 | 3.41377 | 11878 ft | 359 kts | 254° |
| 2026-05-08 12:45 | 49.40809 | 3.37645 | 11694 ft | 353 kts | 265° |
| 2026-05-08 12:45 | 49.41004 | 3.33920 | 11518 ft | 351 kts | 282° |
| 2026-05-08 12:45 | 49.41955 | 3.30478 | 11339 ft | 352 kts | 301° |
| 2026-05-08 12:46 | 49.43574 | 3.27640 | 11172 ft | 360 kts | 315° |
| 2026-05-08 12:46 | 49.45226 | 3.24726 | 11052 ft | 363 kts | 299° |
| 2026-05-08 12:46 | 49.46116 | 3.21130 | 11077 ft | 361 kts | 278° |
| 2026-05-08 12:46 | 49.46106 | 3.17301 | 11077 ft | 359 kts | 258° |
| 2026-05-08 12:47 | 49.45468 | 3.13599 | 11077 ft | 358 kts | 252° |
| 2026-05-08 12:47 | 49.44755 | 3.09926 | 11074 ft | 358 kts | 252° |
| 2026-05-08 12:47 | 49.44028 | 3.06260 | 11071 ft | 359 kts | 252° |
| 2026-05-08 12:47 | 49.43298 | 3.02596 | 11070 ft | 359 kts | 252° |
| 2026-05-08 12:48 | 49.42569 | 2.98936 | 11072 ft | 359 kts | 252° |
| 2026-05-08 12:48 | 49.41840 | 2.95272 | 11068 ft | 359 kts | 252° |
| 2026-05-08 12:48 | 49.41110 | 2.91613 | 11071 ft | 359 kts | 252° |
| 2026-05-08 12:48 | 49.40378 | 2.87948 | 11071 ft | 359 kts | 252° |
| 2026-05-08 12:49 | 49.39647 | 2.84290 | 11074 ft | 359 kts | 252° |
| 2026-05-08 12:49 | 49.38913 | 2.80624 | 11072 ft | 359 kts | 252° |
| 2026-05-08 12:49 | 49.38180 | 2.76967 | 11071 ft | 359 kts | 252° |
| 2026-05-08 12:49 | 49.37447 | 2.73312 | 11074 ft | 359 kts | 252° |
| 2026-05-08 12:50 | 49.36713 | 2.69652 | 11067 ft | 359 kts | 252° |
| 2026-05-08 12:50 | 49.35979 | 2.65997 | 11073 ft | 359 kts | 252° |
| 2026-05-08 12:50 | 49.35233 | 2.62351 | 11069 ft | 357 kts | 252° |
| 2026-05-08 12:50 | 49.34487 | 2.58713 | 11072 ft | 358 kts | 252° |
| 2026-05-08 12:51 | 49.33740 | 2.55076 | 11074 ft | 358 kts | 252° |
| 2026-05-08 12:51 | 49.32242 | 2.47795 | 10881 ft | 354 kts | 252° |
| 2026-05-08 12:51 | 49.31503 | 2.44220 | 10379 ft | 348 kts | 252° |
| 2026-05-08 12:52 | 49.30784 | 2.40769 | 10271 ft | 332 kts | 252° |
| 2026-05-08 12:52 | 49.29432 | 2.34335 | 10019 ft | 304 kts | 252° |
| 2026-05-08 12:52 | 49.28794 | 2.31314 | 9891 ft | 292 kts | 252° |
| 2026-05-08 12:53 | 49.28178 | 2.28404 | 9679 ft | 283 kts | 252° |
| 2026-05-08 12:53 | 49.27577 | 2.25555 | 9330 ft | 280 kts | 252° |
| 2026-05-08 12:53 | 49.26984 | 2.22733 | 8937 ft | 278 kts | 252° |
| 2026-05-08 12:53 | 49.26389 | 2.19911 | 8468 ft | 279 kts | 252° |
| 2026-05-08 12:54 | 49.25794 | 2.17086 | 8102 ft | 279 kts | 252° |
| 2026-05-08 12:54 | 49.25196 | 2.14260 | 7768 ft | 278 kts | 252° |
| 2026-05-08 12:54 | 49.24599 | 2.11448 | 7441 ft | 277 kts | 252° |
| 2026-05-08 12:54 | 49.23998 | 2.08653 | 7121 ft | 276 kts | 250° |
| 2026-05-08 12:55 | 49.23249 | 2.05956 | 6795 ft | 273 kts | 249° |
| 2026-05-08 12:55 | 49.22638 | 2.03273 | 6479 ft | 268 kts | 252° |
| 2026-05-08 12:55 | 49.22059 | 2.00588 | 6151 ft | 263 kts | 252° |
| 2026-05-08 12:55 | 49.21502 | 1.97985 | 6052 ft | 253 kts | 252° |
| 2026-05-08 12:56 | 49.20955 | 1.95431 | 6055 ft | 253 kts | 252° |
| 2026-05-08 12:56 | 49.20407 | 1.92871 | 6056 ft | 253 kts | 252° |
| 2026-05-08 12:56 | 49.19861 | 1.90319 | 6057 ft | 252 kts | 252° |
| 2026-05-08 12:56 | 49.19315 | 1.87769 | 6057 ft | 252 kts | 252° |
| 2026-05-08 12:57 | 49.18667 | 1.85282 | 6063 ft | 252 kts | 236° |
| 2026-05-08 12:57 | 49.17399 | 1.83486 | 6062 ft | 251 kts | 206° |
| 2026-05-08 12:57 | 49.15715 | 1.82913 | 6060 ft | 250 kts | 175° |
| 2026-05-08 12:57 | 49.14077 | 1.83705 | 6060 ft | 250 kts | 148° |
| 2026-05-08 12:58 | 49.12644 | 1.85211 | 6059 ft | 250 kts | 143° |
| 2026-05-08 12:58 | 49.11255 | 1.86813 | 6059 ft | 250 kts | 142° |
| 2026-05-08 12:58 | 49.09871 | 1.88430 | 6056 ft | 251 kts | 142° |
| 2026-05-08 12:58 | 49.08488 | 1.90045 | 6056 ft | 251 kts | 142° |
| 2026-05-08 12:59 | 49.07103 | 1.91661 | 6054 ft | 250 kts | 142° |
| 2026-05-08 12:59 | 49.05729 | 1.93269 | 5759 ft | 248 kts | 141° |
| 2026-05-08 12:59 | 49.04360 | 1.94845 | 5413 ft | 246 kts | 142° |
| 2026-05-08 12:59 | 49.03006 | 1.96393 | 5205 ft | 238 kts | 142° |
| 2026-05-08 13:00 | 49.01704 | 1.97871 | 5074 ft | 228 kts | 142° |
| 2026-05-08 13:00 | 49.00579 | 1.99478 | 4943 ft | 216 kts | 124° |
| 2026-05-08 13:00 | 48.99912 | 2.01454 | 4828 ft | 205 kts | 105° |
| 2026-05-08 13:00 | 48.99722 | 2.03519 | 4689 ft | 197 kts | 87° |
| 2026-05-08 13:01 | 48.99830 | 2.05565 | 4561 ft | 191 kts | 84° |
| 2026-05-08 13:01 | 48.99947 | 2.07533 | 4417 ft | 183 kts | 84° |
| 2026-05-08 13:01 | 49.00060 | 2.09458 | 4130 ft | 182 kts | 84° |
| 2026-05-08 13:01 | 49.00170 | 2.11362 | 4010 ft | 180 kts | 84° |
| 2026-05-08 13:02 | 49.00280 | 2.13265 | 4004 ft | 180 kts | 85° |
| 2026-05-08 13:02 | 49.00390 | 2.15177 | 4001 ft | 182 kts | 85° |
| 2026-05-08 13:02 | 49.00500 | 2.17104 | 4006 ft | 183 kts | 85° |
| 2026-05-08 13:02 | 49.00611 | 2.19031 | 4010 ft | 183 kts | 85° |
| 2026-05-08 13:03 | 49.00720 | 2.20958 | 4006 ft | 182 kts | 85° |
| 2026-05-08 13:03 | 49.00830 | 2.22891 | 4007 ft | 184 kts | 84° |
| 2026-05-08 13:03 | 49.00940 | 2.24834 | 3904 ft | 184 kts | 84° |
| 2026-05-08 13:03 | 49.01050 | 2.26779 | 3695 ft | 184 kts | 85° |
| 2026-05-08 13:04 | 49.01159 | 2.28709 | 3466 ft | 183 kts | 84° |
| 2026-05-08 13:04 | 49.01266 | 2.30619 | 3226 ft | 180 kts | 85° |
| 2026-05-08 13:04 | 49.01373 | 2.32524 | 2988 ft | 180 kts | 84° |
| 2026-05-08 13:04 | 49.01479 | 2.34432 | 2740 ft | 180 kts | 85° |
| 2026-05-08 13:05 | 49.01585 | 2.36324 | 2498 ft | 179 kts | 84° |
| 2026-05-08 13:05 | 49.01690 | 2.38222 | 2261 ft | 179 kts | 84° |
| 2026-05-08 13:05 | 49.01791 | 2.40052 | 2017 ft | 168 kts | 85° |
| 2026-05-08 13:05 | 49.01883 | 2.41715 | 1814 ft | 149 kts | 85° |
| 2026-05-08 13:06 | 49.01966 | 2.43222 | 1629 ft | 138 kts | 84° |
| 2026-05-08 13:06 | 49.02045 | 2.44644 | 1406 ft | 134 kts | 84° |
| 2026-05-08 13:06 | 49.02126 | 2.46028 | 1271 ft | 131 kts | 85° |
| 2026-05-08 13:06 | 49.02200 | 2.47415 | 1072 ft | 133 kts | 86° |
| 2026-05-08 13:07 | 49.02276 | 2.48825 | 882 ft | 133 kts | 83° |
| 2026-05-08 13:07 | 49.02355 | 2.50241 | 723 ft | 134 kts | 84° |
| 2026-05-08 13:07 | 49.02429 | 2.51667 | 543 ft | 133 kts | 81° |
| 2026-05-08 13:07 | 49.02491 | 2.53069 | 373 ft | 131 kts | 82° |
| 2026-05-08 13:08 | 49.02566 | 2.54307 | 362 ft | 100 kts | 83° |
| 2026-05-08 13:08 | 49.02599 | 2.55032 | 354 ft | 52 kts | 89° |
| 2026-05-08 13:08 | 49.02529 | 2.55421 | 357 ft | 27 kts | 122° |
| 2026-05-08 13:08 | 49.02501 | 2.55502 | 361 ft | 0 kts | 115° |
| 2026-05-08 13:09 | 49.02491 | 2.55535 | 357 ft | 8 kts | 114° |
| 2026-05-08 13:09 | 49.02421 | 2.55606 | 360 ft | 17 kts | 168° |
| 2026-05-08 13:09 | 49.02274 | 2.55630 | 354 ft | 25 kts | 176° |
| 2026-05-08 13:09 | 49.02194 | 2.55639 | 362 ft | 0 kts | 175° |
| 2026-05-08 13:11 | 49.02184 | 2.55640 | 363 ft | 7 kts | 175° |
| 2026-05-08 13:11 | 49.02082 | 2.55595 | 362 ft | 23 kts | 227° |
| 2026-05-08 13:12 | 49.02054 | 2.55297 | 354 ft | 34 kts | 263° |
| 2026-05-08 13:12 | 49.02041 | 2.55102 | 358 ft | 15 kts | 264° |
| 2026-05-08 13:12 | 49.02031 | 2.54947 | 361 ft | 14 kts | 264° |
| 2026-05-08 13:12 | 49.02026 | 2.54810 | 354 ft | 12 kts | 266° |
| 2026-05-08 13:13 | 49.02020 | 2.54687 | 354 ft | 11 kts | 266° |
| 2026-05-08 13:13 | 49.02013 | 2.54551 | 354 ft | 19 kts | 265° |
| 2026-05-08 13:13 | 49.01996 | 2.54290 | 355 ft | 14 kts | 264° |
| 2026-05-08 13:13 | 49.01962 | 2.54160 | 359 ft | 12 kts | 211° |
| 2026-05-08 13:14 | 49.01884 | 2.54132 | 357 ft | 11 kts | 179° |
| 2026-05-08 13:14 | 49.01809 | 2.54216 | 357 ft | 19 kts | 100° |
| 2026-05-08 13:14 | 49.01771 | 2.54448 | 357 ft | 26 kts | 115° |
| 2026-05-08 13:14 | 49.01628 | 2.54671 | 354 ft | 33 kts | 147° |
| 2026-05-08 13:15 | 49.01398 | 2.54744 | 354 ft | 35 kts | 187° |
| 2026-05-08 13:15 | 49.01222 | 2.54608 | 356 ft | 25 kts | 242° |
| 2026-05-08 13:15 | 49.01229 | 2.54367 | 355 ft | 15 kts | 317° |
| 2026-05-08 13:15 | 49.01334 | 2.54326 | 354 ft | 16 kts | 17° |
| 2026-05-08 13:16 | 49.01432 | 2.54376 | 359 ft | 14 kts | 27° |
| 2026-05-08 13:16 | 49.01451 | 2.54476 | 354 ft | 0 kts | 89° |